Callander, Canada
Current Conditions -  °F | °C
As of 8:37 AM on Friday 24 Oct 2014 (Local Time) from CYYB Reporting Station
Moderate Fog Moderate Fog  
Wind Chill: 27°   Ceiling: Unl
Heat Index: 32°   Visibility: 0.12mi
Dew Point: 32°   Wind: 5mph
Humidity: 100%   Direction: 120°ESE
Pressure: 30"   Gusts: NA
Location:  46.22°N, 79.36°W
Report Text: CYYB 241237Z 12004KT 1/8SM R08/1100FT/N FZFG SKC M00/M00 A3000 RMK FG2 SLP174
Loading
Personal Weather Stations






























Interactive Weather Map
Tropical Storm Tracking
New forecast layout! Learn more

10-Day Weather Forecast

Advertisements
Track Severe Weather on mobile